メインページ
METAR-TAF:

METAR-TAF

空港 :

アンカレッジ, アラスカ州, アメリカ合衆国

テッド・スティーブンス・アンカレッジ国際空港

緯度: 61-10-28N, 経度: 149-59-46W, 海抜: 44m

現時点の気象観測

当レポートは59分前の10:53(UTC)に作成
南東の風 3kt
気温 6°C
湿度 56%
気圧 1007 hPa
視程: 16.1km
晴天

METAR: PANC 231053Z 13003KT 10SM CLR 06/M02 A2975 RMK AO2 SLP075 T00561022 $

時間: 03:52 (11:52 UTC)

予報

当レポートは14分前の11:38(UTC)に作成
予報は23日の 12時(UTC)から 24日の 18時(UTC)まで有効
変向風 3kt
視程: 10km
高度12000ftの千切れ雲あり
24日の 0000時(UTC)から
南/南東の風 7kt、最大15ktの突風を伴う
視程: 10km
高度8000ftの千切れ雲あり
24日の 1000時(UTC)から
変向風 3kt
視程: 10km
高度6000ftの千切れ雲あり

TAF: PANC 231138Z 2312/2418 VRB03KT P6SM BKN120 FM240000 15007G15KT P6SM BKN080 FM241000 VRB03KT P6SM BKN060

4,000以上の空港の気象観測と天気予報(METAR報とTAF報)

利用可能な観測所は地図上に黄色い丸と赤い丸で示す。

丸の上にカーソルを重ねると観測所名を参照できる。

次にクリックすると気象観測と天気予報を参照できる。

マップの切り替え:黒色「×」印の緑ボタンをクリックして拡大、「-」印の緑ボタンをクリックして縮小、緑色の三角印をクリックして隣りの地図に切り替え


METAR-TAF: